Ramsey, Pennsylvania
Current Conditions -  °F | °C
As of 8:30 PM on Thursday 18 Dec 2014 (Local Time) from KIPT Reporting Station
Overcast Overcast  
Wind Chill: 28°   Ceiling: 2900
Heat Index: 35°   Visibility: 10mi
Dew Point: 24°   Wind: 9mph
Humidity: 64%   Direction: 300°WNW
Pressure: 30.04"   Gusts: NA
Location:  41.1288°N, 77.1989°W
Report Text: KIPT 190130Z 30008KT 10SM BKN029 OVC036 02/M04 A3004 RMK AO2 T00171044
Loading
Personal Weather Stations






























Interactive Weather Map New forecast layout! Learn more

10-Day Weather Forecast

Advertisements
Track Severe Weather on mobile